KSBA/SBA METAR and TAF weather

Enter ICAO airport designator
Station Type Date Time Source
KSBA METAR 2022/01/26 13:53 UTC NOAA

KSBA 261353Z AUTO 00000KT 10SM CLR 04/02 A3008 RMK AO2 SLP185 T00390022 $


Station Type Date Time Source
KSBA Decoded METAR 2022/01/26 13:53 UTC NOAA

SANTA BARBARA MUNICIPAL, CA, United States (KSBA) 34-26N 119-51W 3M
Jan 26, 2022 - 08:53 AM EST / 2022.01.26 1353 UTC
Wind: Calm:0
Visibility: 10 mile(s):0
Sky conditions: clear
Temperature: 39.0 F (3.9 C)
Dew Point: 36.0 F (2.2 C)
Relative Humidity: 88%
Pressure (altimeter): 30.08 in. Hg (1018 hPa)
ob: KSBA 261353Z AUTO 00000KT 10SM CLR 04/02 A3008 RMK AO2 SLP185 T00390022
cycle: 14

Station Type Date Time Source
KSBA TAF 2022/01/26 12:52 UTC NOAA

TAF KSBA 261150Z 2612/2712 VRB03KT P6SM SKC
FM262000 24007KT P6SM SKC
FM270200 VRB03KT P6SM SKC

Example: see airport list